sensor_id;sensor_type;location;lat;lon;timestamp;P1;durP1;ratioP1;P2;durP2;ratioP2
31716;SDS011;18301;51.076;17.046;2023-10-08T00:03:07;1.00;;;0.60;;
31716;SDS011;18301;51.076;17.046;2023-10-08T00:08:12;0.77;;;0.60;;
31716;SDS011;18301;51.076;17.046;2023-10-08T00:13:15;1.10;;;0.70;;
31716;SDS011;18301;51.076;17.046;2023-10-08T00:18:17;0.77;;;0.45;;
31716;SDS011;18301;51.076;17.046;2023-10-08T00:23:23;1.17;;;0.60;;
31716;SDS011;18301;51.076;17.046;2023-10-08T00:28:27;0.93;;;0.60;;
31716;SDS011;18301;51.076;17.046;2023-10-08T00:33:29;0.75;;;0.60;;
31716;SDS011;18301;51.076;17.046;2023-10-08T00:38:31;0.63;;;0.30;;
31716;SDS011;18301;51.076;17.046;2023-10-08T00:43:33;0.88;;;0.60;;
31716;SDS011;18301;51.076;17.046;2023-10-08T00:48:38;0.85;;;0.60;;
31716;SDS011;18301;51.076;17.046;2023-10-08T00:53:45;4.10;;;0.98;;
31716;SDS011;18301;51.076;17.046;2023-10-08T00:58:46;1.23;;;0.50;;
31716;SDS011;18301;51.076;17.046;2023-10-08T01:03:50;1.08;;;0.65;;
31716;SDS011;18301;51.076;17.046;2023-10-08T01:08:52;1.17;;;0.50;;
31716;SDS011;18301;51.076;17.046;2023-10-08T01:13:54;0.82;;;0.50;;
31716;SDS011;18301;51.076;17.046;2023-10-08T01:18:56;0.50;;;0.50;;
31716;SDS011;18301;51.076;17.046;2023-10-08T01:23:58;1.33;;;0.60;;
31716;SDS011;18301;51.076;17.046;2023-10-08T01:29:02;1.02;;;0.50;;
31716;SDS011;18301;51.076;17.046;2023-10-08T01:34:05;0.85;;;0.60;;
31716;SDS011;18301;51.076;17.046;2023-10-08T01:39:08;0.70;;;0.50;;
31716;SDS011;18301;51.076;17.046;2023-10-08T01:44:16;1.08;;;0.40;;
31716;SDS011;18301;51.076;17.046;2023-10-08T01:49:18;1.35;;;0.70;;
31716;SDS011;18301;51.076;17.046;2023-10-08T01:54:23;1.17;;;0.70;;
31716;SDS011;18301;51.076;17.046;2023-10-08T01:59:30;0.93;;;0.60;;
31716;SDS011;18301;51.076;17.046;2023-10-08T02:04:33;1.20;;;0.60;;
31716;SDS011;18301;51.076;17.046;2023-10-08T02:09:38;1.88;;;0.77;;
31716;SDS011;18301;51.076;17.046;2023-10-08T02:14:41;1.63;;;0.70;;
31716;SDS011;18301;51.076;17.046;2023-10-08T02:19:42;0.75;;;0.60;;
31716;SDS011;18301;51.076;17.046;2023-10-08T02:24:44;1.50;;;0.60;;
31716;SDS011;18301;51.076;17.046;2023-10-08T02:29:46;0.90;;;0.70;;
31716;SDS011;18301;51.076;17.046;2023-10-08T02:34:48;0.43;;;0.43;;
31716;SDS011;18301;51.076;17.046;2023-10-08T02:39:52;0.50;;;0.50;;
31716;SDS011;18301;51.076;17.046;2023-10-08T02:44:53;1.05;;;0.50;;
31716;SDS011;18301;51.076;17.046;2023-10-08T02:49:57;0.77;;;0.52;;
31716;SDS011;18301;51.076;17.046;2023-10-08T02:55:00;0.80;;;0.50;;
31716;SDS011;18301;51.076;17.046;2023-10-08T03:00:02;1.63;;;0.70;;
31716;SDS011;18301;51.076;17.046;2023-10-08T03:05:05;1.73;;;0.88;;
31716;SDS011;18301;51.076;17.046;2023-10-08T03:10:09;3.40;;;0.65;;
31716;SDS011;18301;51.076;17.046;2023-10-08T03:15:20;3.50;;;0.50;;
31716;SDS011;18301;51.076;17.046;2023-10-08T03:20:32;1.77;;;0.55;;
31716;SDS011;18301;51.076;17.046;2023-10-08T03:25:40;2.53;;;0.80;;
31716;SDS011;18301;51.076;17.046;2023-10-08T03:30:47;2.55;;;0.77;;
31716;SDS011;18301;51.076;17.046;2023-10-08T03:35:52;1.80;;;0.80;;
31716;SDS011;18301;51.076;17.046;2023-10-08T03:40:54;1.88;;;0.60;;
31716;SDS011;18301;51.076;17.046;2023-10-08T03:46:07;2.05;;;0.80;;
31716;SDS011;18301;51.076;17.046;2023-10-08T03:51:16;1.67;;;0.80;;
31716;SDS011;18301;51.076;17.046;2023-10-08T03:56:22;1.40;;;0.98;;
31716;SDS011;18301;51.076;17.046;2023-10-08T04:01:23;3.38;;;0.90;;
31716;SDS011;18301;51.076;17.046;2023-10-08T04:06:26;2.30;;;0.93;;
31716;SDS011;18301;51.076;17.046;2023-10-08T04:11:39;2.25;;;0.70;;
31716;SDS011;18301;51.076;17.046;2023-10-08T04:17:03;2.72;;;0.88;;
31716;SDS011;18301;51.076;17.046;2023-10-08T04:22:05;3.15;;;1.10;;
31716;SDS011;18301;51.076;17.046;2023-10-08T04:27:15;2.17;;;0.90;;
31716;SDS011;18301;51.076;17.046;2023-10-08T04:32:17;1.92;;;0.80;;
31716;SDS011;18301;51.076;17.046;2023-10-08T04:37:26;1.20;;;0.80;;
31716;SDS011;18301;51.076;17.046;2023-10-08T04:42:33;1.45;;;1.00;;
31716;SDS011;18301;51.076;17.046;2023-10-08T04:47:41;3.13;;;1.20;;
31716;SDS011;18301;51.076;17.046;2023-10-08T04:52:43;2.05;;;1.00;;
31716;SDS011;18301;51.076;17.046;2023-10-08T04:57:59;3.60;;;1.17;;
31716;SDS011;18301;51.076;17.046;2023-10-08T05:03:01;4.25;;;0.80;;
31716;SDS011;18301;51.076;17.046;2023-10-08T05:08:12;2.40;;;1.17;;
31716;SDS011;18301;51.076;17.046;2023-10-08T05:13:30;3.05;;;1.33;;
31716;SDS011;18301;51.076;17.046;2023-10-08T05:18:34;3.03;;;1.20;;
31716;SDS011;18301;51.076;17.046;2023-10-08T05:23:54;2.13;;;1.00;;
31716;SDS011;18301;51.076;17.046;2023-10-08T05:29:09;3.67;;;1.15;;
31716;SDS011;18301;51.076;17.046;2023-10-08T05:34:29;5.35;;;1.52;;
31716;SDS011;18301;51.076;17.046;2023-10-08T05:39:43;2.10;;;1.30;;
31716;SDS011;18301;51.076;17.046;2023-10-08T05:44:48;5.55;;;1.50;;
31716;SDS011;18301;51.076;17.046;2023-10-08T05:50:07;6.88;;;1.98;;
31716;SDS011;18301;51.076;17.046;2023-10-08T05:55:19;2.75;;;1.50;;
31716;SDS011;18301;51.076;17.046;2023-10-08T06:00:27;3.60;;;1.87;;
31716;SDS011;18301;51.076;17.046;2023-10-08T06:05:48;5.00;;;1.80;;
31716;SDS011;18301;51.076;17.046;2023-10-08T06:11:05;7.47;;;2.47;;
31716;SDS011;18301;51.076;17.046;2023-10-08T06:16:18;7.82;;;3.10;;
31716;SDS011;18301;51.076;17.046;2023-10-08T06:21:32;6.90;;;2.80;;
31716;SDS011;18301;51.076;17.046;2023-10-08T06:26:36;4.38;;;2.30;;
31716;SDS011;18301;51.076;17.046;2023-10-08T06:31:44;6.15;;;2.33;;
31716;SDS011;18301;51.076;17.046;2023-10-08T06:36:51;4.73;;;2.80;;
31716;SDS011;18301;51.076;17.046;2023-10-08T06:41:57;5.68;;;2.83;;
31716;SDS011;18301;51.076;17.046;2023-10-08T06:47:00;4.90;;;2.70;;
31716;SDS011;18301;51.076;17.046;2023-10-08T06:52:01;7.43;;;3.10;;
31716;SDS011;18301;51.076;17.046;2023-10-08T06:57:03;9.48;;;3.50;;
31716;SDS011;18301;51.076;17.046;2023-10-08T07:02:05;7.38;;;3.63;;
31716;SDS011;18301;51.076;17.046;2023-10-08T07:07:09;4.18;;;2.80;;
31716;SDS011;18301;51.076;17.046;2023-10-08T07:12:10;6.88;;;3.22;;
31716;SDS011;18301;51.076;17.046;2023-10-08T07:17:15;5.00;;;3.15;;
31716;SDS011;18301;51.076;17.046;2023-10-08T07:22:21;4.93;;;2.95;;
31716;SDS011;18301;51.076;17.046;2023-10-08T07:27:24;3.30;;;2.67;;
31716;SDS011;18301;51.076;17.046;2023-10-08T07:32:33;4.70;;;2.78;;
31716;SDS011;18301;51.076;17.046;2023-10-08T07:37:35;3.38;;;2.17;;
31716;SDS011;18301;51.076;17.046;2023-10-08T07:42:37;4.53;;;1.92;;
31716;SDS011;18301;51.076;17.046;2023-10-08T07:47:39;4.25;;;1.92;;
31716;SDS011;18301;51.076;17.046;2023-10-08T07:52:41;3.15;;;2.20;;
31716;SDS011;18301;51.076;17.046;2023-10-08T07:57:45;4.82;;;2.28;;
31716;SDS011;18301;51.076;17.046;2023-10-08T08:02:47;2.00;;;1.60;;
31716;SDS011;18301;51.076;17.046;2023-10-08T08:07:49;3.15;;;1.60;;
31716;SDS011;18301;51.076;17.046;2023-10-08T08:12:54;2.15;;;1.15;;
31716;SDS011;18301;51.076;17.046;2023-10-08T08:17:58;3.25;;;1.42;;
31716;SDS011;18301;51.076;17.046;2023-10-08T08:23:01;3.50;;;1.40;;
31716;SDS011;18301;51.076;17.046;2023-10-08T08:28:07;3.35;;;1.30;;
31716;SDS011;18301;51.076;17.046;2023-10-08T08:33:18;1.85;;;1.00;;
31716;SDS011;18301;51.076;17.046;2023-10-08T08:38:27;2.80;;;1.10;;
31716;SDS011;18301;51.076;17.046;2023-10-08T08:43:34;1.90;;;0.80;;
31716;SDS011;18301;51.076;17.046;2023-10-08T08:48:36;3.15;;;1.10;;
31716;SDS011;18301;51.076;17.046;2023-10-08T08:53:40;1.35;;;1.05;;
31716;SDS011;18301;51.076;17.046;2023-10-08T08:58:42;2.03;;;1.00;;
31716;SDS011;18301;51.076;17.046;2023-10-08T09:03:45;1.35;;;0.90;;
31716;SDS011;18301;51.076;17.046;2023-10-08T09:08:50;2.05;;;1.00;;
31716;SDS011;18301;51.076;17.046;2023-10-08T09:13:51;2.00;;;1.15;;
31716;SDS011;18301;51.076;17.046;2023-10-08T09:18:54;1.95;;;0.90;;
31716;SDS011;18301;51.076;17.046;2023-10-08T09:23:56;2.65;;;0.90;;
31716;SDS011;18301;51.076;17.046;2023-10-08T09:28:58;1.92;;;0.70;;
31716;SDS011;18301;51.076;17.046;2023-10-08T09:33:59;1.05;;;0.60;;
31716;SDS011;18301;51.076;17.046;2023-10-08T09:39:01;2.00;;;0.88;;
31716;SDS011;18301;51.076;17.046;2023-10-08T09:44:06;0.60;;;0.60;;
31716;SDS011;18301;51.076;17.046;2023-10-08T09:49:11;1.83;;;0.70;;
31716;SDS011;18301;51.076;17.046;2023-10-08T09:54:17;1.45;;;0.73;;
31716;SDS011;18301;51.076;17.046;2023-10-08T09:59:27;1.05;;;0.63;;
31716;SDS011;18301;51.076;17.046;2023-10-08T10:04:30;1.35;;;0.57;;
31716;SDS011;18301;51.076;17.046;2023-10-08T10:09:33;2.38;;;0.75;;
31716;SDS011;18301;51.076;17.046;2023-10-08T10:14:47;1.30;;;0.70;;
31716;SDS011;18301;51.076;17.046;2023-10-08T10:19:50;0.80;;;0.50;;
31716;SDS011;18301;51.076;17.046;2023-10-08T10:25:01;5.60;;;0.75;;
31716;SDS011;18301;51.076;17.046;2023-10-08T10:30:15;2.42;;;0.60;;
31716;SDS011;18301;51.076;17.046;2023-10-08T10:35:24;2.20;;;0.70;;
31716;SDS011;18301;51.076;17.046;2023-10-08T10:40:25;2.83;;;0.70;;
31716;SDS011;18301;51.076;17.046;2023-10-08T10:45:42;1.25;;;0.75;;
31716;SDS011;18301;51.076;17.046;2023-10-08T10:50:49;0.63;;;0.60;;
31716;SDS011;18301;51.076;17.046;2023-10-08T10:56:06;0.77;;;0.47;;
31716;SDS011;18301;51.076;17.046;2023-10-08T11:01:11;0.70;;;0.43;;
31716;SDS011;18301;51.076;17.046;2023-10-08T11:06:25;2.15;;;0.57;;
31716;SDS011;18301;51.076;17.046;2023-10-08T11:11:27;1.85;;;0.80;;
31716;SDS011;18301;51.076;17.046;2023-10-08T11:16:31;0.88;;;0.65;;
31716;SDS011;18301;51.076;17.046;2023-10-08T11:21:50;0.55;;;0.52;;
31716;SDS011;18301;51.076;17.046;2023-10-08T11:26:53;0.98;;;0.70;;
31716;SDS011;18301;51.076;17.046;2023-10-08T11:32:14;0.88;;;0.60;;
31716;SDS011;18301;51.076;17.046;2023-10-08T11:37:27;1.85;;;0.50;;
31716;SDS011;18301;51.076;17.046;2023-10-08T11:42:35;0.90;;;0.50;;
31716;SDS011;18301;51.076;17.046;2023-10-08T11:47:36;0.75;;;0.40;;
31716;SDS011;18301;51.076;17.046;2023-10-08T11:52:38;0.90;;;0.70;;
31716;SDS011;18301;51.076;17.046;2023-10-08T11:57:43;1.25;;;0.68;;
31716;SDS011;18301;51.076;17.046;2023-10-08T12:02:47;1.02;;;0.63;;
31716;SDS011;18301;51.076;17.046;2023-10-08T12:12:59;1.30;;;0.60;;
31716;SDS011;18301;51.076;17.046;2023-10-08T12:18:01;1.63;;;0.60;;
31716;SDS011;18301;51.076;17.046;2023-10-08T12:23:17;1.10;;;0.70;;
31716;SDS011;18301;51.076;17.046;2023-10-08T12:28:26;1.83;;;0.60;;
31716;SDS011;18301;51.076;17.046;2023-10-08T12:33:29;0.90;;;0.60;;
31716;SDS011;18301;51.076;17.046;2023-10-08T12:38:31;1.73;;;0.80;;
31716;SDS011;18301;51.076;17.046;2023-10-08T12:43:33;0.90;;;0.70;;
31716;SDS011;18301;51.076;17.046;2023-10-08T12:48:37;0.68;;;0.40;;
31716;SDS011;18301;51.076;17.046;2023-10-08T12:53:39;0.60;;;0.60;;
31716;SDS011;18301;51.076;17.046;2023-10-08T12:58:42;1.75;;;0.77;;
31716;SDS011;18301;51.076;17.046;2023-10-08T13:03:49;0.80;;;0.70;;
31716;SDS011;18301;51.076;17.046;2023-10-08T13:08:53;1.08;;;0.73;;
31716;SDS011;18301;51.076;17.046;2023-10-08T13:13:55;1.38;;;0.80;;
31716;SDS011;18301;51.076;17.046;2023-10-08T13:18:58;1.15;;;0.63;;
31716;SDS011;18301;51.076;17.046;2023-10-08T13:24:00;2.90;;;1.10;;
31716;SDS011;18301;51.076;17.046;2023-10-08T13:29:04;1.10;;;0.80;;
31716;SDS011;18301;51.076;17.046;2023-10-08T13:34:11;1.80;;;0.90;;
31716;SDS011;18301;51.076;17.046;2023-10-08T13:39:13;0.85;;;0.60;;
31716;SDS011;18301;51.076;17.046;2023-10-08T13:44:20;1.35;;;0.80;;
31716;SDS011;18301;51.076;17.046;2023-10-08T13:49:31;0.60;;;0.52;;
31716;SDS011;18301;51.076;17.046;2023-10-08T13:54:33;1.15;;;0.68;;
31716;SDS011;18301;51.076;17.046;2023-10-08T13:59:37;0.77;;;0.60;;
31716;SDS011;18301;51.076;17.046;2023-10-08T14:04:42;0.85;;;0.80;;
31716;SDS011;18301;51.076;17.046;2023-10-08T14:09:45;1.90;;;0.75;;
31716;SDS011;18301;51.076;17.046;2023-10-08T14:14:47;1.88;;;0.60;;
31716;SDS011;18301;51.076;17.046;2023-10-08T14:19:50;0.60;;;0.60;;
31716;SDS011;18301;51.076;17.046;2023-10-08T14:25:01;1.00;;;0.73;;
31716;SDS011;18301;51.076;17.046;2023-10-08T14:30:03;0.90;;;0.60;;
31716;SDS011;18301;51.076;17.046;2023-10-08T14:35:07;1.13;;;0.60;;
31716;SDS011;18301;51.076;17.046;2023-10-08T14:40:28;2.55;;;0.77;;
31716;SDS011;18301;51.076;17.046;2023-10-08T14:45:48;2.33;;;0.70;;
31716;SDS011;18301;51.076;17.046;2023-10-08T14:50:50;1.23;;;0.75;;
31716;SDS011;18301;51.076;17.046;2023-10-08T14:55:52;1.23;;;0.60;;
31716;SDS011;18301;51.076;17.046;2023-10-08T15:00:54;1.50;;;0.75;;
31716;SDS011;18301;51.076;17.046;2023-10-08T15:05:55;0.80;;;0.52;;
31716;SDS011;18301;51.076;17.046;2023-10-08T15:10:58;1.02;;;0.60;;
31716;SDS011;18301;51.076;17.046;2023-10-08T15:15:59;1.92;;;0.65;;
31716;SDS011;18301;51.076;17.046;2023-10-08T15:21:05;0.52;;;0.50;;
31716;SDS011;18301;51.076;17.046;2023-10-08T15:26:08;1.45;;;0.90;;
31716;SDS011;18301;51.076;17.046;2023-10-08T15:31:10;1.90;;;0.80;;
31716;SDS011;18301;51.076;17.046;2023-10-08T15:36:12;2.28;;;0.70;;
31716;SDS011;18301;51.076;17.046;2023-10-08T15:41:13;2.00;;;0.73;;
31716;SDS011;18301;51.076;17.046;2023-10-08T15:46:18;1.77;;;0.95;;
31716;SDS011;18301;51.076;17.046;2023-10-08T15:51:20;0.70;;;0.65;;
31716;SDS011;18301;51.076;17.046;2023-10-08T15:56:22;0.70;;;0.70;;
31716;SDS011;18301;51.076;17.046;2023-10-08T16:01:23;0.90;;;0.60;;
31716;SDS011;18301;51.076;17.046;2023-10-08T16:06:27;1.35;;;0.80;;
31716;SDS011;18301;51.076;17.046;2023-10-08T16:11:28;1.13;;;0.70;;
31716;SDS011;18301;51.076;17.046;2023-10-08T16:16:31;1.88;;;0.88;;
31716;SDS011;18301;51.076;17.046;2023-10-08T16:21:32;3.50;;;1.00;;
31716;SDS011;18301;51.076;17.046;2023-10-08T16:26:34;2.55;;;1.10;;
31716;SDS011;18301;51.076;17.046;2023-10-08T16:31:36;2.15;;;1.10;;
31716;SDS011;18301;51.076;17.046;2023-10-08T16:36:42;3.03;;;1.05;;
31716;SDS011;18301;51.076;17.046;2023-10-08T16:41:47;2.88;;;1.27;;
31716;SDS011;18301;51.076;17.046;2023-10-08T16:46:49;2.60;;;1.50;;
31716;SDS011;18301;51.076;17.046;2023-10-08T16:51:52;1.92;;;1.30;;
31716;SDS011;18301;51.076;17.046;2023-10-08T16:56:53;3.25;;;1.50;;
31716;SDS011;18301;51.076;17.046;2023-10-08T17:01:55;4.43;;;1.75;;
31716;SDS011;18301;51.076;17.046;2023-10-08T17:06:56;2.88;;;1.60;;
31716;SDS011;18301;51.076;17.046;2023-10-08T17:11:58;3.25;;;1.85;;
31716;SDS011;18301;51.076;17.046;2023-10-08T17:17:00;4.55;;;2.10;;
31716;SDS011;18301;51.076;17.046;2023-10-08T17:22:03;3.42;;;1.92;;
31716;SDS011;18301;51.076;17.046;2023-10-08T17:27:05;7.05;;;2.05;;
31716;SDS011;18301;51.076;17.046;2023-10-08T17:32:15;3.67;;;1.83;;
31716;SDS011;18301;51.076;17.046;2023-10-08T17:37:16;4.70;;;2.45;;
31716;SDS011;18301;51.076;17.046;2023-10-08T17:42:18;4.72;;;2.53;;
31716;SDS011;18301;51.076;17.046;2023-10-08T17:47:20;5.03;;;2.30;;
31716;SDS011;18301;51.076;17.046;2023-10-08T17:52:21;5.78;;;2.63;;
31716;SDS011;18301;51.076;17.046;2023-10-08T17:57:23;4.32;;;2.60;;
31716;SDS011;18301;51.076;17.046;2023-10-08T18:02:24;5.80;;;2.80;;
31716;SDS011;18301;51.076;17.046;2023-10-08T18:07:27;5.50;;;2.75;;
31716;SDS011;18301;51.076;17.046;2023-10-08T18:12:28;5.65;;;3.03;;
31716;SDS011;18301;51.076;17.046;2023-10-08T18:17:31;5.22;;;2.85;;
31716;SDS011;18301;51.076;17.046;2023-10-08T18:22:34;5.97;;;3.85;;
31716;SDS011;18301;51.076;17.046;2023-10-08T18:27:36;8.25;;;4.28;;
31716;SDS011;18301;51.076;17.046;2023-10-08T18:32:39;12.18;;;3.85;;
31716;SDS011;18301;51.076;17.046;2023-10-08T18:37:41;7.25;;;3.90;;
31716;SDS011;18301;51.076;17.046;2023-10-08T18:42:42;8.73;;;4.07;;
31716;SDS011;18301;51.076;17.046;2023-10-08T18:47:44;10.43;;;4.60;;
31716;SDS011;18301;51.076;17.046;2023-10-08T18:52:47;9.63;;;3.97;;
31716;SDS011;18301;51.076;17.046;2023-10-08T18:57:49;9.38;;;4.50;;
31716;SDS011;18301;51.076;17.046;2023-10-08T19:02:53;10.95;;;4.05;;
31716;SDS011;18301;51.076;17.046;2023-10-08T19:07:56;12.85;;;4.10;;
31716;SDS011;18301;51.076;17.046;2023-10-08T19:12:58;10.27;;;4.43;;
31716;SDS011;18301;51.076;17.046;2023-10-08T19:17:59;10.48;;;4.25;;
31716;SDS011;18301;51.076;17.046;2023-10-08T19:23:06;9.02;;;4.10;;
31716;SDS011;18301;51.076;17.046;2023-10-08T19:28:09;6.88;;;3.65;;
31716;SDS011;18301;51.076;17.046;2023-10-08T19:33:12;7.65;;;4.00;;
31716;SDS011;18301;51.076;17.046;2023-10-08T19:38:14;7.60;;;3.90;;
31716;SDS011;18301;51.076;17.046;2023-10-08T19:43:16;12.43;;;5.38;;
31716;SDS011;18301;51.076;17.046;2023-10-08T19:48:18;16.10;;;7.38;;
31716;SDS011;18301;51.076;17.046;2023-10-08T19:53:20;29.13;;;11.80;;
31716;SDS011;18301;51.076;17.046;2023-10-08T19:58:23;40.30;;;16.67;;
31716;SDS011;18301;51.076;17.046;2023-10-08T20:03:24;41.38;;;15.75;;
31716;SDS011;18301;51.076;17.046;2023-10-08T20:08:26;29.92;;;12.27;;
31716;SDS011;18301;51.076;17.046;2023-10-08T20:13:28;23.55;;;10.25;;
31716;SDS011;18301;51.076;17.046;2023-10-08T20:18:29;18.15;;;8.40;;
31716;SDS011;18301;51.076;17.046;2023-10-08T20:23:32;17.00;;;8.43;;
31716;SDS011;18301;51.076;17.046;2023-10-08T20:28:37;12.38;;;6.30;;
31716;SDS011;18301;51.076;17.046;2023-10-08T20:33:38;11.70;;;5.50;;
31716;SDS011;18301;51.076;17.046;2023-10-08T20:38:41;9.60;;;4.93;;
31716;SDS011;18301;51.076;17.046;2023-10-08T20:43:43;11.07;;;5.22;;
31716;SDS011;18301;51.076;17.046;2023-10-08T20:48:45;9.20;;;4.85;;
31716;SDS011;18301;51.076;17.046;2023-10-08T20:53:49;9.10;;;5.00;;
31716;SDS011;18301;51.076;17.046;2023-10-08T20:58:51;14.27;;;5.10;;
31716;SDS011;18301;51.076;17.046;2023-10-08T21:03:53;11.50;;;5.28;;
31716;SDS011;18301;51.076;17.046;2023-10-08T21:08:54;13.75;;;5.20;;
31716;SDS011;18301;51.076;17.046;2023-10-08T21:13:56;9.95;;;5.03;;
31716;SDS011;18301;51.076;17.046;2023-10-08T21:18:58;10.02;;;4.97;;
31716;SDS011;18301;51.076;17.046;2023-10-08T21:23:59;10.23;;;4.80;;
31716;SDS011;18301;51.076;17.046;2023-10-08T21:29:01;9.98;;;5.00;;
31716;SDS011;18301;51.076;17.046;2023-10-08T21:34:02;11.25;;;4.90;;
31716;SDS011;18301;51.076;17.046;2023-10-08T21:39:05;7.38;;;4.20;;
31716;SDS011;18301;51.076;17.046;2023-10-08T21:44:06;8.98;;;4.53;;
31716;SDS011;18301;51.076;17.046;2023-10-08T21:49:08;9.02;;;4.38;;
31716;SDS011;18301;51.076;17.046;2023-10-08T21:54:10;9.85;;;4.60;;
31716;SDS011;18301;51.076;17.046;2023-10-08T21:59:11;11.52;;;5.07;;
31716;SDS011;18301;51.076;17.046;2023-10-08T22:04:15;7.90;;;4.47;;
31716;SDS011;18301;51.076;17.046;2023-10-08T22:09:17;13.32;;;4.57;;
31716;SDS011;18301;51.076;17.046;2023-10-08T22:14:19;13.15;;;6.93;;
31716;SDS011;18301;51.076;17.046;2023-10-08T22:19:24;59.25;;;21.67;;
31716;SDS011;18301;51.076;17.046;2023-10-08T22:24:26;58.13;;;21.05;;
31716;SDS011;18301;51.076;17.046;2023-10-08T22:29:28;18.85;;;8.20;;
31716;SDS011;18301;51.076;17.046;2023-10-08T22:34:30;14.25;;;6.72;;
31716;SDS011;18301;51.076;17.046;2023-10-08T22:39:31;11.52;;;6.15;;
31716;SDS011;18301;51.076;17.046;2023-10-08T22:44:34;17.10;;;8.00;;
31716;SDS011;18301;51.076;17.046;2023-10-08T22:49:36;34.28;;;13.00;;
31716;SDS011;18301;51.076;17.046;2023-10-08T22:54:38;11.00;;;5.55;;
31716;SDS011;18301;51.076;17.046;2023-10-08T22:59:41;11.48;;;6.10;;
31716;SDS011;18301;51.076;17.046;2023-10-08T23:04:43;17.25;;;7.30;;
31716;SDS011;18301;51.076;17.046;2023-10-08T23:09:45;16.83;;;7.60;;
31716;SDS011;18301;51.076;17.046;2023-10-08T23:14:47;17.95;;;7.97;;
31716;SDS011;18301;51.076;17.046;2023-10-08T23:19:49;19.30;;;8.10;;
31716;SDS011;18301;51.076;17.046;2023-10-08T23:24:52;10.68;;;5.13;;
31716;SDS011;18301;51.076;17.046;2023-10-08T23:29:57;9.60;;;5.47;;
31716;SDS011;18301;51.076;17.046;2023-10-08T23:34:59;8.45;;;4.88;;
31716;SDS011;18301;51.076;17.046;2023-10-08T23:40:01;9.63;;;5.38;;
31716;SDS011;18301;51.076;17.046;2023-10-08T23:45:12;10.63;;;5.45;;
31716;SDS011;18301;51.076;17.046;2023-10-08T23:50:18;10.43;;;5.88;;
31716;SDS011;18301;51.076;17.046;2023-10-08T23:55:30;10.10;;;4.95;;
